sensor_id;sensor_type;location;lat;lon;timestamp;P1;durP1;ratioP1;P2;durP2;ratioP2
7306;SDS011;3694;48.732;9.248;2023-04-10T00:01:31;12.80;;;11.10;;
7306;SDS011;3694;48.732;9.248;2023-04-10T00:04:00;14.83;;;11.60;;
7306;SDS011;3694;48.732;9.248;2023-04-10T00:06:26;13.93;;;11.97;;
7306;SDS011;3694;48.732;9.248;2023-04-10T00:08:52;13.67;;;11.20;;
7306;SDS011;3694;48.732;9.248;2023-04-10T00:11:18;13.50;;;12.03;;
7306;SDS011;3694;48.732;9.248;2023-04-10T00:13:43;12.83;;;11.37;;
7306;SDS011;3694;48.732;9.248;2023-04-10T00:16:09;13.73;;;12.00;;
7306;SDS011;3694;48.732;9.248;2023-04-10T00:18:35;14.80;;;12.63;;
7306;SDS011;3694;48.732;9.248;2023-04-10T00:21:01;15.13;;;12.00;;
7306;SDS011;3694;48.732;9.248;2023-04-10T00:23:27;15.93;;;13.13;;
7306;SDS011;3694;48.732;9.248;2023-04-10T00:25:55;14.80;;;13.20;;
7306;SDS011;3694;48.732;9.248;2023-04-10T00:28:21;14.17;;;12.67;;
7306;SDS011;3694;48.732;9.248;2023-04-10T00:30:47;16.97;;;13.13;;
7306;SDS011;3694;48.732;9.248;2023-04-10T00:33:12;15.77;;;13.17;;
7306;SDS011;3694;48.732;9.248;2023-04-10T00:35:38;15.43;;;13.53;;
7306;SDS011;3694;48.732;9.248;2023-04-10T00:38:03;16.43;;;13.33;;
7306;SDS011;3694;48.732;9.248;2023-04-10T00:40:29;17.00;;;13.47;;
7306;SDS011;3694;48.732;9.248;2023-04-10T00:42:55;16.07;;;13.83;;
7306;SDS011;3694;48.732;9.248;2023-04-10T00:45:21;16.63;;;13.97;;
7306;SDS011;3694;48.732;9.248;2023-04-10T00:47:46;17.80;;;13.73;;
7306;SDS011;3694;48.732;9.248;2023-04-10T00:50:12;16.70;;;13.17;;
7306;SDS011;3694;48.732;9.248;2023-04-10T00:52:37;14.73;;;12.80;;
7306;SDS011;3694;48.732;9.248;2023-04-10T00:55:03;16.17;;;13.87;;
7306;SDS011;3694;48.732;9.248;2023-04-10T00:57:29;15.03;;;13.03;;
7306;SDS011;3694;48.732;9.248;2023-04-10T00:59:55;14.60;;;12.80;;
7306;SDS011;3694;48.732;9.248;2023-04-10T01:02:20;15.83;;;13.57;;
7306;SDS011;3694;48.732;9.248;2023-04-10T01:04:46;16.87;;;14.00;;
7306;SDS011;3694;48.732;9.248;2023-04-10T01:07:14;15.63;;;13.10;;
7306;SDS011;3694;48.732;9.248;2023-04-10T01:15:14;16.63;;;14.57;;
7306;SDS011;3694;48.732;9.248;2023-04-10T01:17:57;18.03;;;14.70;;
7306;SDS011;3694;48.732;9.248;2023-04-10T01:20:31;15.63;;;13.70;;
7306;SDS011;3694;48.732;9.248;2023-04-10T01:26:06;16.20;;;13.23;;
7306;SDS011;3694;48.732;9.248;2023-04-10T01:28:41;17.10;;;13.77;;
7306;SDS011;3694;48.732;9.248;2023-04-10T01:34:04;15.33;;;13.67;;
7306;SDS011;3694;48.732;9.248;2023-04-10T01:36:39;15.90;;;13.30;;
7306;SDS011;3694;48.732;9.248;2023-04-10T01:39:13;15.40;;;13.00;;
7306;SDS011;3694;48.732;9.248;2023-04-10T01:41:45;16.87;;;13.87;;
7306;SDS011;3694;48.732;9.248;2023-04-10T01:44:12;15.50;;;13.40;;
7306;SDS011;3694;48.732;9.248;2023-04-10T01:46:39;16.17;;;13.60;;
7306;SDS011;3694;48.732;9.248;2023-04-10T01:49:07;16.63;;;13.63;;
7306;SDS011;3694;48.732;9.248;2023-04-10T01:51:34;16.93;;;14.43;;
7306;SDS011;3694;48.732;9.248;2023-04-10T01:54:00;15.80;;;13.47;;
7306;SDS011;3694;48.732;9.248;2023-04-10T01:56:27;15.50;;;12.80;;
7306;SDS011;3694;48.732;9.248;2023-04-10T01:58:53;15.93;;;13.83;;
7306;SDS011;3694;48.732;9.248;2023-04-10T02:01:20;14.57;;;12.13;;
7306;SDS011;3694;48.732;9.248;2023-04-10T02:03:46;14.37;;;12.40;;
7306;SDS011;3694;48.732;9.248;2023-04-10T02:06:21;15.57;;;12.90;;
7306;SDS011;3694;48.732;9.248;2023-04-10T02:08:56;13.57;;;12.13;;
7306;SDS011;3694;48.732;9.248;2023-04-10T02:11:30;14.17;;;11.80;;
7306;SDS011;3694;48.732;9.248;2023-04-10T02:14:03;15.10;;;12.67;;
7306;SDS011;3694;48.732;9.248;2023-04-10T02:16:31;14.40;;;11.17;;
7306;SDS011;3694;48.732;9.248;2023-04-10T02:18:58;12.27;;;10.97;;
7306;SDS011;3694;48.732;9.248;2023-04-10T02:21:26;13.00;;;11.40;;
7306;SDS011;3694;48.732;9.248;2023-04-10T02:23:52;12.93;;;10.97;;
7306;SDS011;3694;48.732;9.248;2023-04-10T02:26:20;12.53;;;11.10;;
7306;SDS011;3694;48.732;9.248;2023-04-10T02:28:46;14.43;;;10.97;;
7306;SDS011;3694;48.732;9.248;2023-04-10T02:31:11;13.13;;;11.20;;
7306;SDS011;3694;48.732;9.248;2023-04-10T02:33:37;11.70;;;10.33;;
7306;SDS011;3694;48.732;9.248;2023-04-10T02:36:02;12.97;;;11.07;;
7306;SDS011;3694;48.732;9.248;2023-04-10T02:38:28;14.93;;;11.63;;
7306;SDS011;3694;48.732;9.248;2023-04-10T02:40:53;13.20;;;11.57;;
7306;SDS011;3694;48.732;9.248;2023-04-10T02:43:19;14.93;;;11.77;;
7306;SDS011;3694;48.732;9.248;2023-04-10T02:45:45;13.57;;;11.23;;
7306;SDS011;3694;48.732;9.248;2023-04-10T02:48:11;12.43;;;11.13;;
7306;SDS011;3694;48.732;9.248;2023-04-10T02:50:37;13.13;;;11.47;;
7306;SDS011;3694;48.732;9.248;2023-04-10T02:53:02;13.93;;;12.30;;
7306;SDS011;3694;48.732;9.248;2023-04-10T02:55:28;14.07;;;12.00;;
7306;SDS011;3694;48.732;9.248;2023-04-10T02:57:53;14.07;;;11.07;;
7306;SDS011;3694;48.732;9.248;2023-04-10T03:00:19;12.97;;;11.43;;
7306;SDS011;3694;48.732;9.248;2023-04-10T03:02:45;13.43;;;12.03;;
7306;SDS011;3694;48.732;9.248;2023-04-10T03:05:10;14.50;;;12.10;;
7306;SDS011;3694;48.732;9.248;2023-04-10T03:07:36;13.50;;;11.60;;
7306;SDS011;3694;48.732;9.248;2023-04-10T03:10:02;14.87;;;12.60;;
7306;SDS011;3694;48.732;9.248;2023-04-10T03:12:27;15.90;;;13.10;;
7306;SDS011;3694;48.732;9.248;2023-04-10T03:14:53;15.37;;;12.53;;
7306;SDS011;3694;48.732;9.248;2023-04-10T03:17:18;14.43;;;12.07;;
7306;SDS011;3694;48.732;9.248;2023-04-10T03:19:44;15.93;;;12.90;;
7306;SDS011;3694;48.732;9.248;2023-04-10T03:22:10;15.43;;;12.87;;
7306;SDS011;3694;48.732;9.248;2023-04-10T03:24:35;16.30;;;13.37;;
7306;SDS011;3694;48.732;9.248;2023-04-10T03:27:02;14.50;;;12.50;;
7306;SDS011;3694;48.732;9.248;2023-04-10T03:29:27;15.83;;;13.07;;
7306;SDS011;3694;48.732;9.248;2023-04-10T03:31:53;16.17;;;13.43;;
7306;SDS011;3694;48.732;9.248;2023-04-10T03:34:19;18.93;;;13.73;;
7306;SDS011;3694;48.732;9.248;2023-04-10T03:36:44;16.47;;;13.67;;
7306;SDS011;3694;48.732;9.248;2023-04-10T03:39:10;16.43;;;13.50;;
7306;SDS011;3694;48.732;9.248;2023-04-10T03:41:36;16.63;;;13.40;;
7306;SDS011;3694;48.732;9.248;2023-04-10T03:44:01;17.00;;;13.50;;
7306;SDS011;3694;48.732;9.248;2023-04-10T03:46:28;17.47;;;13.77;;
7306;SDS011;3694;48.732;9.248;2023-04-10T03:48:53;16.33;;;13.33;;
7306;SDS011;3694;48.732;9.248;2023-04-10T03:51:19;16.10;;;13.63;;
7306;SDS011;3694;48.732;9.248;2023-04-10T03:53:45;15.63;;;13.53;;
7306;SDS011;3694;48.732;9.248;2023-04-10T03:56:11;16.30;;;14.37;;
7306;SDS011;3694;48.732;9.248;2023-04-10T03:58:36;15.63;;;13.30;;
7306;SDS011;3694;48.732;9.248;2023-04-10T04:01:03;15.57;;;13.50;;
7306;SDS011;3694;48.732;9.248;2023-04-10T04:03:29;15.30;;;12.67;;
7306;SDS011;3694;48.732;9.248;2023-04-10T04:05:55;15.77;;;12.73;;
7306;SDS011;3694;48.732;9.248;2023-04-10T04:08:20;14.37;;;12.60;;
7306;SDS011;3694;48.732;9.248;2023-04-10T04:10:46;14.83;;;12.50;;
7306;SDS011;3694;48.732;9.248;2023-04-10T04:13:11;14.53;;;12.57;;
7306;SDS011;3694;48.732;9.248;2023-04-10T04:15:37;16.80;;;12.87;;
7306;SDS011;3694;48.732;9.248;2023-04-10T04:18:02;16.70;;;13.50;;
7306;SDS011;3694;48.732;9.248;2023-04-10T04:20:28;15.83;;;13.23;;
7306;SDS011;3694;48.732;9.248;2023-04-10T04:22:54;16.37;;;12.93;;
7306;SDS011;3694;48.732;9.248;2023-04-10T04:25:19;15.83;;;12.27;;
7306;SDS011;3694;48.732;9.248;2023-04-10T04:27:45;15.47;;;13.17;;
7306;SDS011;3694;48.732;9.248;2023-04-10T04:30:10;16.70;;;13.13;;
7306;SDS011;3694;48.732;9.248;2023-04-10T04:32:36;15.97;;;13.17;;
7306;SDS011;3694;48.732;9.248;2023-04-10T04:35:01;16.27;;;13.60;;
7306;SDS011;3694;48.732;9.248;2023-04-10T04:37:27;16.07;;;13.47;;
7306;SDS011;3694;48.732;9.248;2023-04-10T04:39:52;16.30;;;13.57;;
7306;SDS011;3694;48.732;9.248;2023-04-10T04:42:18;14.73;;;12.83;;
7306;SDS011;3694;48.732;9.248;2023-04-10T04:44:44;15.07;;;12.27;;
7306;SDS011;3694;48.732;9.248;2023-04-10T04:47:09;13.23;;;11.77;;
7306;SDS011;3694;48.732;9.248;2023-04-10T04:49:35;14.63;;;12.27;;
7306;SDS011;3694;48.732;9.248;2023-04-10T04:52:01;14.17;;;12.43;;
7306;SDS011;3694;48.732;9.248;2023-04-10T04:54:26;14.80;;;12.63;;
7306;SDS011;3694;48.732;9.248;2023-04-10T04:56:52;14.03;;;11.60;;
7306;SDS011;3694;48.732;9.248;2023-04-10T04:59:17;16.23;;;12.80;;
7306;SDS011;3694;48.732;9.248;2023-04-10T05:01:43;13.33;;;11.50;;
7306;SDS011;3694;48.732;9.248;2023-04-10T05:04:08;15.17;;;11.90;;
7306;SDS011;3694;48.732;9.248;2023-04-10T05:06:34;15.50;;;12.33;;
7306;SDS011;3694;48.732;9.248;2023-04-10T05:08:59;14.90;;;11.90;;
7306;SDS011;3694;48.732;9.248;2023-04-10T05:11:25;14.77;;;12.17;;
7306;SDS011;3694;48.732;9.248;2023-04-10T05:13:51;15.50;;;12.40;;
7306;SDS011;3694;48.732;9.248;2023-04-10T05:16:16;13.70;;;11.53;;
7306;SDS011;3694;48.732;9.248;2023-04-10T05:18:42;13.67;;;11.77;;
7306;SDS011;3694;48.732;9.248;2023-04-10T05:21:07;12.67;;;10.83;;
7306;SDS011;3694;48.732;9.248;2023-04-10T05:23:33;11.37;;;10.13;;
7306;SDS011;3694;48.732;9.248;2023-04-10T05:25:58;11.67;;;10.17;;
7306;SDS011;3694;48.732;9.248;2023-04-10T05:28:24;11.90;;;10.30;;
7306;SDS011;3694;48.732;9.248;2023-04-10T05:30:49;11.53;;;10.07;;
7306;SDS011;3694;48.732;9.248;2023-04-10T05:33:15;12.27;;;10.73;;
7306;SDS011;3694;48.732;9.248;2023-04-10T05:35:40;12.37;;;10.67;;
7306;SDS011;3694;48.732;9.248;2023-04-10T05:38:06;12.47;;;9.77;;
7306;SDS011;3694;48.732;9.248;2023-04-10T05:40:31;11.37;;;9.37;;
7306;SDS011;3694;48.732;9.248;2023-04-10T05:42:57;11.33;;;10.03;;
7306;SDS011;3694;48.732;9.248;2023-04-10T05:45:22;11.70;;;10.23;;
7306;SDS011;3694;48.732;9.248;2023-04-10T05:47:48;11.90;;;10.17;;
7306;SDS011;3694;48.732;9.248;2023-04-10T05:50:13;10.90;;;9.80;;
7306;SDS011;3694;48.732;9.248;2023-04-10T05:52:39;10.53;;;9.40;;
7306;SDS011;3694;48.732;9.248;2023-04-10T05:55:04;10.20;;;9.10;;
7306;SDS011;3694;48.732;9.248;2023-04-10T05:57:30;10.40;;;9.30;;
7306;SDS011;3694;48.732;9.248;2023-04-10T05:59:56;10.30;;;9.20;;
7306;SDS011;3694;48.732;9.248;2023-04-10T06:02:22;9.43;;;8.43;;
7306;SDS011;3694;48.732;9.248;2023-04-10T06:04:48;8.87;;;7.97;;
7306;SDS011;3694;48.732;9.248;2023-04-10T06:07:13;8.97;;;8.07;;
7306;SDS011;3694;48.732;9.248;2023-04-10T06:09:39;9.17;;;8.27;;
7306;SDS011;3694;48.732;9.248;2023-04-10T06:12:05;9.87;;;8.87;;
7306;SDS011;3694;48.732;9.248;2023-04-10T06:14:30;9.87;;;8.87;;
7306;SDS011;3694;48.732;9.248;2023-04-10T06:16:56;9.47;;;8.57;;
7306;SDS011;3694;48.732;9.248;2023-04-10T06:19:21;9.37;;;8.33;;
7306;SDS011;3694;48.732;9.248;2023-04-10T06:21:47;9.50;;;8.50;;
7306;SDS011;3694;48.732;9.248;2023-04-10T06:24:12;9.37;;;8.47;;
7306;SDS011;3694;48.732;9.248;2023-04-10T06:26:38;9.37;;;8.47;;
7306;SDS011;3694;48.732;9.248;2023-04-10T06:29:03;11.23;;;8.13;;
7306;SDS011;3694;48.732;9.248;2023-04-10T06:31:31;9.40;;;8.50;;
7306;SDS011;3694;48.732;9.248;2023-04-10T06:33:57;8.90;;;8.10;;
7306;SDS011;3694;48.732;9.248;2023-04-10T06:36:23;9.53;;;8.63;;
7306;SDS011;3694;48.732;9.248;2023-04-10T06:38:49;10.10;;;9.10;;
7306;SDS011;3694;48.732;9.248;2023-04-10T06:41:15;9.97;;;8.97;;
7306;SDS011;3694;48.732;9.248;2023-04-10T06:43:40;9.20;;;8.30;;
7306;SDS011;3694;48.732;9.248;2023-04-10T06:46:06;9.63;;;8.63;;
7306;SDS011;3694;48.732;9.248;2023-04-10T06:48:32;9.13;;;8.23;;
7306;SDS011;3694;48.732;9.248;2023-04-10T06:50:57;8.70;;;7.87;;
7306;SDS011;3694;48.732;9.248;2023-04-10T06:53:24;8.40;;;7.60;;
7306;SDS011;3694;48.732;9.248;2023-04-10T06:55:51;9.27;;;8.37;;
7306;SDS011;3694;48.732;9.248;2023-04-10T06:58:16;8.27;;;7.57;;
7306;SDS011;3694;48.732;9.248;2023-04-10T07:00:42;8.80;;;8.00;;
7306;SDS011;3694;48.732;9.248;2023-04-10T07:03:07;8.83;;;7.97;;
7306;SDS011;3694;48.732;9.248;2023-04-10T07:05:33;8.87;;;7.97;;
7306;SDS011;3694;48.732;9.248;2023-04-10T07:07:58;8.80;;;8.00;;
7306;SDS011;3694;48.732;9.248;2023-04-10T07:10:24;8.73;;;7.93;;
7306;SDS011;3694;48.732;9.248;2023-04-10T07:12:50;9.20;;;8.40;;
7306;SDS011;3694;48.732;9.248;2023-04-10T07:15:15;8.70;;;7.90;;
7306;SDS011;3694;48.732;9.248;2023-04-10T07:17:41;8.03;;;7.23;;
7306;SDS011;3694;48.732;9.248;2023-04-10T07:20:07;8.30;;;7.50;;
7306;SDS011;3694;48.732;9.248;2023-04-10T07:22:33;7.10;;;6.50;;
7306;SDS011;3694;48.732;9.248;2023-04-10T07:24:59;7.30;;;6.70;;
7306;SDS011;3694;48.732;9.248;2023-04-10T07:27:24;7.40;;;6.80;;
7306;SDS011;3694;48.732;9.248;2023-04-10T07:29:52;6.53;;;5.93;;
7306;SDS011;3694;48.732;9.248;2023-04-10T07:32:19;7.60;;;7.00;;
7306;SDS011;3694;48.732;9.248;2023-04-10T07:34:44;8.07;;;7.27;;
7306;SDS011;3694;48.732;9.248;2023-04-10T07:37:10;7.40;;;6.80;;
7306;SDS011;3694;48.732;9.248;2023-04-10T07:39:36;7.40;;;6.70;;
7306;SDS011;3694;48.732;9.248;2023-04-10T07:42:01;6.60;;;6.00;;
7306;SDS011;3694;48.732;9.248;2023-04-10T07:44:26;6.90;;;6.30;;
7306;SDS011;3694;48.732;9.248;2023-04-10T07:46:52;6.67;;;6.07;;
7306;SDS011;3694;48.732;9.248;2023-04-10T07:49:18;6.70;;;6.10;;
7306;SDS011;3694;48.732;9.248;2023-04-10T07:51:43;6.63;;;6.13;;
7306;SDS011;3694;48.732;9.248;2023-04-10T07:54:09;6.67;;;6.07;;
7306;SDS011;3694;48.732;9.248;2023-04-10T07:56:34;6.57;;;6.07;;
7306;SDS011;3694;48.732;9.248;2023-04-10T07:59:00;6.20;;;5.70;;
7306;SDS011;3694;48.732;9.248;2023-04-10T08:01:26;5.90;;;5.40;;
7306;SDS011;3694;48.732;9.248;2023-04-10T08:03:53;6.50;;;6.00;;
7306;SDS011;3694;48.732;9.248;2023-04-10T08:06:20;5.90;;;5.40;;
7306;SDS011;3694;48.732;9.248;2023-04-10T08:08:45;5.87;;;5.37;;
7306;SDS011;3694;48.732;9.248;2023-04-10T08:11:22;6.63;;;5.93;;
7306;SDS011;3694;48.732;9.248;2023-04-10T08:13:50;5.43;;;5.00;;
7306;SDS011;3694;48.732;9.248;2023-04-10T08:16:17;5.23;;;4.83;;
7306;SDS011;3694;48.732;9.248;2023-04-10T08:18:47;5.30;;;4.90;;
7306;SDS011;3694;48.732;9.248;2023-04-10T08:21:12;5.23;;;4.83;;
7306;SDS011;3694;48.732;9.248;2023-04-10T08:23:38;5.27;;;4.80;;
7306;SDS011;3694;48.732;9.248;2023-04-10T08:26:03;5.13;;;4.73;;
7306;SDS011;3694;48.732;9.248;2023-04-10T08:28:29;5.33;;;4.90;;
7306;SDS011;3694;48.732;9.248;2023-04-10T08:30:56;5.30;;;4.90;;
7306;SDS011;3694;48.732;9.248;2023-04-10T08:33:22;5.00;;;4.60;;
7306;SDS011;3694;48.732;9.248;2023-04-10T08:35:47;5.40;;;4.83;;
7306;SDS011;3694;48.732;9.248;2023-04-10T08:38:13;4.87;;;4.47;;
7306;SDS011;3694;48.732;9.248;2023-04-10T08:40:38;4.87;;;4.47;;
7306;SDS011;3694;48.732;9.248;2023-04-10T08:43:04;4.27;;;3.97;;
7306;SDS011;3694;48.732;9.248;2023-04-10T08:45:30;4.00;;;3.70;;
7306;SDS011;3694;48.732;9.248;2023-04-10T08:47:56;4.00;;;3.70;;
7306;SDS011;3694;48.732;9.248;2023-04-10T08:50:25;4.40;;;4.00;;
7306;SDS011;3694;48.732;9.248;2023-04-10T08:52:53;4.07;;;3.70;;
7306;SDS011;3694;48.732;9.248;2023-04-10T08:55:20;4.43;;;4.03;;
7306;SDS011;3694;48.732;9.248;2023-04-10T08:57:46;4.20;;;3.90;;
7306;SDS011;3694;48.732;9.248;2023-04-10T09:00:12;3.70;;;3.40;;
7306;SDS011;3694;48.732;9.248;2023-04-10T09:02:38;3.80;;;3.50;;
7306;SDS011;3694;48.732;9.248;2023-04-10T09:05:05;4.03;;;3.73;;
7306;SDS011;3694;48.732;9.248;2023-04-10T09:07:35;3.90;;;3.60;;
7306;SDS011;3694;48.732;9.248;2023-04-10T09:10:00;3.97;;;3.67;;
7306;SDS011;3694;48.732;9.248;2023-04-10T09:12:26;3.87;;;3.57;;
7306;SDS011;3694;48.732;9.248;2023-04-10T09:14:51;4.07;;;3.77;;
7306;SDS011;3694;48.732;9.248;2023-04-10T09:17:18;3.50;;;3.30;;
7306;SDS011;3694;48.732;9.248;2023-04-10T09:19:51;3.43;;;3.13;;
7306;SDS011;3694;48.732;9.248;2023-04-10T09:22:28;3.80;;;3.50;;
7306;SDS011;3694;48.732;9.248;2023-04-10T09:24:59;3.83;;;3.43;;
7306;SDS011;3694;48.732;9.248;2023-04-10T09:27:29;3.43;;;3.13;;
7306;SDS011;3694;48.732;9.248;2023-04-10T09:29:56;3.57;;;3.27;;
7306;SDS011;3694;48.732;9.248;2023-04-10T09:32:41;3.40;;;3.13;;
7306;SDS011;3694;48.732;9.248;2023-04-10T09:35:08;3.30;;;3.10;;
7306;SDS011;3694;48.732;9.248;2023-04-10T09:37:36;3.53;;;3.23;;
7306;SDS011;3694;48.732;9.248;2023-04-10T09:40:03;3.33;;;3.03;;
7306;SDS011;3694;48.732;9.248;2023-04-10T09:42:35;3.57;;;3.27;;
7306;SDS011;3694;48.732;9.248;2023-04-10T09:45:01;3.17;;;2.90;;
7306;SDS011;3694;48.732;9.248;2023-04-10T09:47:28;3.60;;;3.30;;
7306;SDS011;3694;48.732;9.248;2023-04-10T09:49:56;3.30;;;3.10;;
7306;SDS011;3694;48.732;9.248;2023-04-10T09:52:28;3.50;;;3.20;;
7306;SDS011;3694;48.732;9.248;2023-04-10T09:54:55;3.27;;;2.97;;
7306;SDS011;3694;48.732;9.248;2023-04-10T09:57:27;5.30;;;4.77;;
7306;SDS011;3694;48.732;9.248;2023-04-10T09:59:57;2.90;;;2.70;;
7306;SDS011;3694;48.732;9.248;2023-04-10T10:02:24;3.03;;;2.83;;
7306;SDS011;3694;48.732;9.248;2023-04-10T10:04:52;2.83;;;2.63;;
7306;SDS011;3694;48.732;9.248;2023-04-10T10:07:19;2.70;;;2.50;;
7306;SDS011;3694;48.732;9.248;2023-04-10T10:09:47;3.17;;;2.80;;
7306;SDS011;3694;48.732;9.248;2023-04-10T10:12:15;2.60;;;2.40;;
7306;SDS011;3694;48.732;9.248;2023-04-10T10:14:59;2.70;;;2.50;;
7306;SDS011;3694;48.732;9.248;2023-04-10T10:17:41;2.83;;;2.63;;
7306;SDS011;3694;48.732;9.248;2023-04-10T10:20:15;2.67;;;2.47;;
7306;SDS011;3694;48.732;9.248;2023-04-10T10:22:42;2.43;;;2.33;;
7306;SDS011;3694;48.732;9.248;2023-04-10T10:25:09;3.20;;;2.90;;
7306;SDS011;3694;48.732;9.248;2023-04-10T10:27:35;4.67;;;2.23;;
7306;SDS011;3694;48.732;9.248;2023-04-10T10:30:02;2.47;;;2.33;;
7306;SDS011;3694;48.732;9.248;2023-04-10T10:32:31;2.20;;;2.10;;
7306;SDS011;3694;48.732;9.248;2023-04-10T10:34:59;2.07;;;1.97;;
7306;SDS011;3694;48.732;9.248;2023-04-10T10:37:26;1.70;;;1.60;;
7306;SDS011;3694;48.732;9.248;2023-04-10T10:40:00;1.83;;;1.73;;
7306;SDS011;3694;48.732;9.248;2023-04-10T10:42:45;1.80;;;1.70;;
7306;SDS011;3694;48.732;9.248;2023-04-10T10:45:18;1.80;;;1.63;;
7306;SDS011;3694;48.732;9.248;2023-04-10T10:48:06;2.50;;;2.30;;
7306;SDS011;3694;48.732;9.248;2023-04-10T10:51:05;1.73;;;1.63;;
7306;SDS011;3694;48.732;9.248;2023-04-10T10:53:38;2.40;;;1.80;;
7306;SDS011;3694;48.732;9.248;2023-04-10T10:58:45;1.47;;;1.37;;
7306;SDS011;3694;48.732;9.248;2023-04-10T11:01:11;1.90;;;1.80;;
7306;SDS011;3694;48.732;9.248;2023-04-10T11:03:37;2.43;;;1.50;;
7306;SDS011;3694;48.732;9.248;2023-04-10T11:06:04;1.90;;;1.80;;
7306;SDS011;3694;48.732;9.248;2023-04-10T11:08:34;1.53;;;1.43;;
7306;SDS011;3694;48.732;9.248;2023-04-10T11:11:09;1.73;;;1.60;;
7306;SDS011;3694;48.732;9.248;2023-04-10T11:13:35;1.80;;;1.70;;
7306;SDS011;3694;48.732;9.248;2023-04-10T11:16:03;1.53;;;1.43;;
7306;SDS011;3694;48.732;9.248;2023-04-10T11:21:12;1.43;;;1.33;;
7306;SDS011;3694;48.732;9.248;2023-04-10T11:26:35;1.50;;;1.40;;
7306;SDS011;3694;48.732;9.248;2023-04-10T11:31:36;1.47;;;1.37;;
7306;SDS011;3694;48.732;9.248;2023-04-10T11:34:06;1.67;;;1.27;;
7306;SDS011;3694;48.732;9.248;2023-04-10T11:36:33;2.10;;;1.90;;
7306;SDS011;3694;48.732;9.248;2023-04-10T11:39:06;1.53;;;1.43;;
7306;SDS011;3694;48.732;9.248;2023-04-10T11:41:37;1.67;;;1.50;;
7306;SDS011;3694;48.732;9.248;2023-04-10T11:44:05;1.17;;;1.17;;
7306;SDS011;3694;48.732;9.248;2023-04-10T11:46:35;1.20;;;1.20;;
7306;SDS011;3694;48.732;9.248;2023-04-10T11:49:04;1.10;;;1.10;;
7306;SDS011;3694;48.732;9.248;2023-04-10T11:51:31;1.20;;;1.10;;
7306;SDS011;3694;48.732;9.248;2023-04-10T11:54:10;1.80;;;1.70;;
7306;SDS011;3694;48.732;9.248;2023-04-10T11:56:37;1.07;;;1.00;;
7306;SDS011;3694;48.732;9.248;2023-04-10T11:59:04;0.90;;;0.90;;
7306;SDS011;3694;48.732;9.248;2023-04-10T12:01:43;0.70;;;0.70;;
7306;SDS011;3694;48.732;9.248;2023-04-10T12:04:15;0.60;;;0.50;;
7306;SDS011;3694;48.732;9.248;2023-04-10T12:06:45;0.70;;;0.70;;
7306;SDS011;3694;48.732;9.248;2023-04-10T12:09:13;1.27;;;0.80;;
7306;SDS011;3694;48.732;9.248;2023-04-10T12:11:47;0.80;;;0.80;;
7306;SDS011;3694;48.732;9.248;2023-04-10T12:14:27;1.30;;;0.90;;
7306;SDS011;3694;48.732;9.248;2023-04-10T12:17:01;1.40;;;1.30;;
7306;SDS011;3694;48.732;9.248;2023-04-10T12:19:27;1.50;;;1.40;;
7306;SDS011;3694;48.732;9.248;2023-04-10T12:21:54;1.00;;;1.00;;
7306;SDS011;3694;48.732;9.248;2023-04-10T12:27:05;0.70;;;0.70;;
7306;SDS011;3694;48.732;9.248;2023-04-10T12:29:31;1.10;;;0.90;;
7306;SDS011;3694;48.732;9.248;2023-04-10T12:31:56;1.13;;;1.03;;
7306;SDS011;3694;48.732;9.248;2023-04-10T12:34:22;1.00;;;1.00;;
7306;SDS011;3694;48.732;9.248;2023-04-10T12:36:51;0.97;;;0.97;;
7306;SDS011;3694;48.732;9.248;2023-04-10T12:39:21;1.00;;;1.00;;
7306;SDS011;3694;48.732;9.248;2023-04-10T12:41:48;0.70;;;0.70;;
7306;SDS011;3694;48.732;9.248;2023-04-10T12:44:13;1.00;;;1.00;;
7306;SDS011;3694;48.732;9.248;2023-04-10T12:46:40;0.90;;;0.90;;
7306;SDS011;3694;48.732;9.248;2023-04-10T12:49:10;1.10;;;1.10;;
7306;SDS011;3694;48.732;9.248;2023-04-10T12:51:47;1.60;;;1.40;;
7306;SDS011;3694;48.732;9.248;2023-04-10T12:54:30;1.17;;;1.17;;
7306;SDS011;3694;48.732;9.248;2023-04-10T12:56:57;2.00;;;1.90;;
7306;SDS011;3694;48.732;9.248;2023-04-10T12:59:23;1.30;;;1.20;;
7306;SDS011;3694;48.732;9.248;2023-04-10T13:01:50;1.53;;;1.43;;
7306;SDS011;3694;48.732;9.248;2023-04-10T13:04:16;1.30;;;1.23;;
7306;SDS011;3694;48.732;9.248;2023-04-10T13:06:46;1.63;;;1.07;;
7306;SDS011;3694;48.732;9.248;2023-04-10T13:09:12;1.20;;;1.17;;
7306;SDS011;3694;48.732;9.248;2023-04-10T13:11:39;2.67;;;1.60;;
7306;SDS011;3694;48.732;9.248;2023-04-10T13:14:05;1.33;;;1.10;;
7306;SDS011;3694;48.732;9.248;2023-04-10T13:16:35;1.47;;;1.37;;
7306;SDS011;3694;48.732;9.248;2023-04-10T13:19:00;1.30;;;1.20;;
7306;SDS011;3694;48.732;9.248;2023-04-10T13:21:26;1.40;;;1.30;;
7306;SDS011;3694;48.732;9.248;2023-04-10T13:23:53;1.40;;;1.30;;
7306;SDS011;3694;48.732;9.248;2023-04-10T13:26:22;1.33;;;1.23;;
7306;SDS011;3694;48.732;9.248;2023-04-10T13:28:48;1.40;;;1.30;;
7306;SDS011;3694;48.732;9.248;2023-04-10T13:31:14;1.30;;;1.20;;
7306;SDS011;3694;48.732;9.248;2023-04-10T13:33:40;1.43;;;1.33;;
7306;SDS011;3694;48.732;9.248;2023-04-10T13:36:11;1.30;;;1.20;;
7306;SDS011;3694;48.732;9.248;2023-04-10T13:38:37;1.37;;;1.27;;
7306;SDS011;3694;48.732;9.248;2023-04-10T13:41:03;1.40;;;1.23;;
7306;SDS011;3694;48.732;9.248;2023-04-10T13:43:29;2.63;;;1.40;;
7306;SDS011;3694;48.732;9.248;2023-04-10T13:45:54;1.47;;;1.37;;
7306;SDS011;3694;48.732;9.248;2023-04-10T13:48:20;1.53;;;1.40;;
7306;SDS011;3694;48.732;9.248;2023-04-10T13:50:45;1.50;;;1.40;;
7306;SDS011;3694;48.732;9.248;2023-04-10T13:53:11;1.57;;;1.47;;
7306;SDS011;3694;48.732;9.248;2023-04-10T13:55:37;1.50;;;1.40;;
7306;SDS011;3694;48.732;9.248;2023-04-10T13:58:04;1.53;;;1.43;;
7306;SDS011;3694;48.732;9.248;2023-04-10T14:00:31;1.67;;;1.57;;
7306;SDS011;3694;48.732;9.248;2023-04-10T14:02:56;1.53;;;1.43;;
7306;SDS011;3694;48.732;9.248;2023-04-10T14:05:21;1.97;;;1.87;;
7306;SDS011;3694;48.732;9.248;2023-04-10T14:07:47;1.50;;;1.40;;
7306;SDS011;3694;48.732;9.248;2023-04-10T14:10:15;1.67;;;1.40;;
7306;SDS011;3694;48.732;9.248;2023-04-10T14:12:41;1.50;;;1.40;;
7306;SDS011;3694;48.732;9.248;2023-04-10T14:15:06;1.73;;;1.63;;
7306;SDS011;3694;48.732;9.248;2023-04-10T14:17:32;1.77;;;1.67;;
7306;SDS011;3694;48.732;9.248;2023-04-10T14:19:58;1.40;;;1.30;;
7306;SDS011;3694;48.732;9.248;2023-04-10T14:22:24;1.50;;;1.40;;
7306;SDS011;3694;48.732;9.248;2023-04-10T14:24:49;1.50;;;1.40;;
7306;SDS011;3694;48.732;9.248;2023-04-10T14:27:15;1.90;;;1.80;;
7306;SDS011;3694;48.732;9.248;2023-04-10T14:29:41;1.50;;;1.40;;
7306;SDS011;3694;48.732;9.248;2023-04-10T14:32:06;1.20;;;1.20;;
7306;SDS011;3694;48.732;9.248;2023-04-10T14:34:32;1.30;;;1.30;;
7306;SDS011;3694;48.732;9.248;2023-04-10T14:36:57;1.27;;;1.17;;
7306;SDS011;3694;48.732;9.248;2023-04-10T14:39:23;1.60;;;1.50;;
7306;SDS011;3694;48.732;9.248;2023-04-10T14:41:49;1.60;;;1.50;;
7306;SDS011;3694;48.732;9.248;2023-04-10T14:44:15;1.43;;;1.33;;
7306;SDS011;3694;48.732;9.248;2023-04-10T14:46:41;1.60;;;1.50;;
7306;SDS011;3694;48.732;9.248;2023-04-10T14:49:07;1.30;;;1.20;;
7306;SDS011;3694;48.732;9.248;2023-04-10T14:51:33;1.13;;;1.13;;
7306;SDS011;3694;48.732;9.248;2023-04-10T14:53:59;1.67;;;1.37;;
7306;SDS011;3694;48.732;9.248;2023-04-10T14:56:24;1.57;;;1.40;;
7306;SDS011;3694;48.732;9.248;2023-04-10T14:58:50;1.47;;;1.37;;
7306;SDS011;3694;48.732;9.248;2023-04-10T15:01:15;1.60;;;1.50;;
7306;SDS011;3694;48.732;9.248;2023-04-10T15:03:41;1.70;;;1.60;;
7306;SDS011;3694;48.732;9.248;2023-04-10T15:06:10;1.50;;;1.40;;
7306;SDS011;3694;48.732;9.248;2023-04-10T15:08:35;1.50;;;1.40;;
7306;SDS011;3694;48.732;9.248;2023-04-10T15:11:01;1.20;;;1.10;;
7306;SDS011;3694;48.732;9.248;2023-04-10T15:13:28;1.40;;;1.30;;
7306;SDS011;3694;48.732;9.248;2023-04-10T15:15:54;1.43;;;1.33;;
7306;SDS011;3694;48.732;9.248;2023-04-10T15:18:20;1.50;;;1.33;;
7306;SDS011;3694;48.732;9.248;2023-04-10T15:20:46;2.90;;;2.33;;
7306;SDS011;3694;48.732;9.248;2023-04-10T15:23:11;2.03;;;1.90;;
7306;SDS011;3694;48.732;9.248;2023-04-10T15:25:37;1.90;;;1.80;;
7306;SDS011;3694;48.732;9.248;2023-04-10T15:28:02;1.60;;;1.50;;
7306;SDS011;3694;48.732;9.248;2023-04-10T15:30:28;1.93;;;1.77;;